createdAt,value
2022-09-14T00:00:54.790Z,69
2022-09-14T00:01:52.286Z,69
2022-09-14T00:02:59.202Z,70
2022-09-14T00:04:03.462Z,70
2022-09-14T00:05:07.686Z,69
2022-09-14T00:06:11.927Z,70
2022-09-14T00:07:15.999Z,70
2022-09-14T00:08:20.343Z,69
2022-09-14T00:09:24.722Z,69
2022-09-14T00:10:28.931Z,69
2022-09-14T00:11:33.495Z,70
2022-09-14T00:12:37.862Z,69
2022-09-14T00:13:42.288Z,69
2022-09-14T00:14:49.099Z,69
2022-09-14T00:15:53.250Z,69
2022-09-14T00:16:57.645Z,69
2022-09-14T00:18:01.880Z,69
2022-09-14T00:19:06.461Z,69
2022-09-14T00:20:18.523Z,68
2022-09-14T00:21:22.800Z,69
2022-09-14T00:22:30.223Z,69
2022-09-14T00:23:34.470Z,69
2022-09-14T00:24:38.762Z,69
2022-09-14T00:25:44.631Z,69
2022-09-14T00:26:49.282Z,69
2022-09-14T00:27:53.488Z,69
2022-09-14T00:28:57.758Z,69
2022-09-14T00:30:01.987Z,69
2022-09-14T00:31:06.558Z,69
2022-09-14T00:32:10.904Z,68
2022-09-14T00:33:15.081Z,69
2022-09-14T00:34:19.700Z,68
2022-09-14T00:35:23.978Z,69
2022-09-14T00:36:28.184Z,69
2022-09-14T00:37:35.702Z,68
2022-09-14T00:38:40.012Z,69
2022-09-14T00:39:44.190Z,69
2022-09-14T00:40:48.430Z,69
2022-09-14T00:41:57.735Z,69
2022-09-14T00:43:02.081Z,68
2022-09-14T00:44:08.154Z,68
2022-09-14T00:45:12.602Z,69
2022-09-14T00:46:17.002Z,69
2022-09-14T00:47:21.378Z,69
2022-09-14T00:48:25.635Z,69
2022-09-14T00:49:34.494Z,69
2022-09-14T00:50:38.872Z,69
2022-09-14T00:51:43.018Z,68
2022-09-14T00:52:55.070Z,68
2022-09-14T00:53:59.524Z,68
2022-09-14T00:55:08.454Z,68
2022-09-14T00:56:12.629Z,68
2022-09-14T00:57:17.054Z,69
2022-09-14T00:58:21.446Z,68
2022-09-14T01:01:15.279Z,68
2022-09-14T01:02:19.866Z,68
2022-09-14T01:03:24.218Z,68
2022-09-14T01:04:28.437Z,68
2022-09-14T01:05:33.545Z,68
2022-09-14T01:06:41.014Z,68
2022-09-14T01:07:51.266Z,68
2022-09-14T01:09:09.561Z,68
2022-09-14T01:10:22.139Z,68
2022-09-14T01:11:32.686Z,69
2022-09-14T01:12:46.062Z,68
2022-09-14T01:13:50.569Z,68
2022-09-14T01:14:54.890Z,68
2022-09-14T01:16:07.343Z,69
2022-09-14T01:17:22.582Z,69
2022-09-14T01:18:32.448Z,69
2022-09-14T01:19:46.161Z,68
2022-09-14T01:21:00.710Z,68
2022-09-14T01:22:15.090Z,68
2022-09-14T01:23:19.297Z,69
2022-09-14T01:24:31.293Z,69
2022-09-14T01:25:35.650Z,69
2022-09-14T01:26:50.081Z,69
2022-09-14T01:28:02.276Z,69
2022-09-14T01:29:09.422Z,69
2022-09-14T01:30:16.677Z,69
2022-09-14T01:33:13.641Z,68
2022-09-14T01:35:31.758Z,68
2022-09-14T01:40:20.807Z,69
2022-09-14T01:41:30.937Z,69
2022-09-14T01:42:35.361Z,69
2022-09-14T01:43:39.682Z,70
2022-09-14T01:44:52.169Z,69
2022-09-14T01:45:56.354Z,70
2022-09-14T01:49:50.961Z,69
2022-09-14T01:50:58.005Z,70
2022-09-14T01:52:02.260Z,70
2022-09-14T01:53:11.225Z,70
2022-09-14T01:54:21.065Z,70
2022-09-14T01:55:28.227Z,70
2022-09-14T01:57:41.060Z,69
2022-09-14T01:58:48.325Z,70
2022-09-14T02:01:50.256Z,69
2022-09-14T02:02:55.838Z,70
2022-09-14T02:04:05.242Z,69
2022-09-14T02:07:03.246Z,70
2022-09-14T02:08:07.820Z,70
2022-09-14T02:09:11.944Z,70
2022-09-14T02:10:19.346Z,70
2022-09-14T02:11:27.758Z,70
2022-09-14T02:12:32.170Z,70
2022-09-14T02:13:36.408Z,70
2022-09-14T02:14:40.761Z,70
2022-09-14T02:15:46.240Z,70
2022-09-14T02:16:50.543Z,70
2022-09-14T02:17:54.817Z,69
2022-09-14T02:18:59.109Z,69
2022-09-14T02:20:05.484Z,70
2022-09-14T02:21:09.886Z,71
2022-09-14T02:22:17.184Z,70
2022-09-14T02:23:21.481Z,70
2022-09-14T02:27:16.492Z,71
2022-09-14T02:28:22.320Z,71
2022-09-14T02:29:26.901Z,71
2022-09-14T02:30:31.140Z,71
2022-09-14T02:31:45.644Z,71
2022-09-14T02:32:59.968Z,70
2022-09-14T02:34:09.312Z,70
2022-09-14T02:35:21.508Z,71
2022-09-14T02:36:31.600Z,71
2022-09-14T02:37:41.350Z,71
2022-09-14T02:38:50.706Z,70
2022-09-14T02:41:46.989Z,71
2022-09-14T02:42:59.320Z,70
2022-09-14T02:44:11.389Z,70
2022-09-14T02:45:23.332Z,70
2022-09-14T02:46:37.771Z,71
2022-09-14T02:47:47.633Z,71
2022-09-14T02:48:59.932Z,70
2022-09-14T02:51:56.418Z,72
2022-09-14T02:53:03.309Z,72
2022-09-14T02:54:17.809Z,71
2022-09-14T02:55:30.140Z,71
2022-09-14T02:56:34.392Z,72
2022-09-14T02:57:40.801Z,71
2022-09-14T02:58:53.187Z,72
2022-09-14T02:59:57.209Z,72
2022-09-14T03:01:01.896Z,72
2022-09-14T03:02:06.387Z,72
2022-09-14T03:03:10.601Z,72
2022-09-14T03:04:14.900Z,72
2022-09-14T03:05:23.341Z,72
2022-09-14T03:06:27.848Z,72
2022-09-14T03:07:32.096Z,72
2022-09-14T03:08:36.310Z,71
2022-09-14T03:09:40.428Z,71
2022-09-14T03:10:44.757Z,71
2022-09-14T03:11:49.144Z,71
2022-09-14T03:12:54.704Z,71
2022-09-14T03:13:58.971Z,72
2022-09-14T03:15:03.155Z,72
2022-09-14T03:16:07.605Z,72
2022-09-14T03:17:11.721Z,72
2022-09-14T03:20:05.428Z,72
2022-09-14T03:21:09.833Z,73
2022-09-14T03:22:15.793Z,72
2022-09-14T03:23:20.112Z,72
2022-09-14T03:24:24.356Z,72
2022-09-14T03:25:28.443Z,72
2022-09-14T03:26:32.877Z,71
2022-09-14T03:27:38.260Z,72
2022-09-14T03:28:42.402Z,72
2022-09-14T03:29:46.727Z,72
2022-09-14T03:30:55.581Z,72
2022-09-14T03:32:02.964Z,72
2022-09-14T03:33:07.194Z,72
2022-09-14T03:34:11.427Z,72
2022-09-14T03:35:15.779Z,72
2022-09-14T03:36:19.972Z,73
2022-09-14T03:39:13.828Z,73
2022-09-14T03:40:21.806Z,73
2022-09-14T03:41:26.145Z,72
2022-09-14T03:42:30.331Z,73
2022-09-14T03:45:24.109Z,72
2022-09-14T03:46:28.457Z,72
2022-09-14T03:47:32.636Z,73
2022-09-14T03:48:36.860Z,73
2022-09-14T03:49:41.080Z,73
2022-09-14T03:50:45.413Z,73
2022-09-14T03:51:49.580Z,73
2022-09-14T03:53:57.425Z,74
2022-09-14T03:55:03.328Z,74
2022-09-14T03:56:07.861Z,73
2022-09-14T03:57:18.252Z,73
2022-09-14T04:00:14.984Z,74
2022-09-14T04:01:19.433Z,72
2022-09-14T04:02:23.634Z,72
2022-09-14T04:03:27.832Z,72
2022-09-14T04:04:32.020Z,72
2022-09-14T04:05:36.280Z,72
2022-09-14T04:06:40.512Z,72
2022-09-14T04:07:44.620Z,72
2022-09-14T04:08:48.947Z,72
2022-09-14T04:09:53.616Z,72
2022-09-14T04:10:57.956Z,72
2022-09-14T04:12:02.053Z,72
2022-09-14T04:13:06.492Z,73
2022-09-14T04:14:10.719Z,74
2022-09-14T04:15:15.177Z,74
2022-09-14T04:16:23.046Z,74
2022-09-14T04:17:27.176Z,74
2022-09-14T04:18:31.460Z,75
2022-09-14T04:19:35.904Z,75
2022-09-14T04:20:40.165Z,74
2022-09-14T04:24:34.732Z,75
2022-09-14T04:25:39.124Z,75
2022-09-14T04:26:43.413Z,75
2022-09-14T04:27:59.082Z,75
2022-09-14T04:28:55.048Z,75
2022-09-14T04:30:00.612Z,76
2022-09-14T04:31:05.114Z,76
2022-09-14T04:32:10.734Z,75
2022-09-14T04:33:16.389Z,75
2022-09-14T04:34:21.720Z,75
2022-09-14T04:35:26.092Z,76
2022-09-14T04:36:30.246Z,75
2022-09-14T04:37:34.556Z,75
2022-09-14T04:38:38.812Z,75
2022-09-14T04:39:47.445Z,75
2022-09-14T04:40:51.681Z,74
2022-09-14T04:41:55.976Z,74
2022-09-14T04:43:00.408Z,75
2022-09-14T04:44:04.548Z,75
2022-09-14T04:45:08.872Z,75
2022-09-14T04:46:14.350Z,75
2022-09-14T04:47:18.760Z,75
2022-09-14T04:48:25.928Z,75
2022-09-14T04:49:30.208Z,76
2022-09-14T04:50:34.333Z,75
2022-09-14T04:51:38.572Z,75
2022-09-14T04:52:42.972Z,75
2022-09-14T04:53:47.296Z,75
2022-09-14T04:54:51.640Z,75
2022-09-14T04:55:55.896Z,76
2022-09-14T04:57:03.075Z,76
2022-09-14T04:58:10.564Z,75
2022-09-14T04:59:14.744Z,75
2022-09-14T05:00:19.700Z,75
2022-09-14T05:01:25.764Z,75
2022-09-14T05:04:20.725Z,75
2022-09-14T05:05:24.832Z,75
2022-09-14T05:06:29.981Z,75
2022-09-14T05:07:34.325Z,75
2022-09-14T05:08:38.416Z,75
2022-09-14T05:09:42.760Z,75
2022-09-14T05:10:50.692Z,75
2022-09-14T05:11:58.445Z,75
2022-09-14T05:13:07.236Z,75
2022-09-14T05:14:11.553Z,74
2022-09-14T05:15:15.876Z,75
2022-09-14T05:16:20.649Z,74
2022-09-14T05:17:24.892Z,75
2022-09-14T05:18:29.281Z,74
2022-09-14T05:21:23.253Z,74
2022-09-14T05:22:27.484Z,75
2022-09-14T05:23:31.858Z,76
2022-09-14T05:24:36.420Z,76
2022-09-14T05:25:40.860Z,76
2022-09-14T05:26:45.108Z,76
2022-09-14T05:27:49.184Z,76
2022-09-14T05:28:53.485Z,76
2022-09-14T05:30:00.247Z,76
2022-09-14T05:31:06.282Z,76
2022-09-14T05:32:13.481Z,76
2022-09-14T05:33:17.796Z,75
2022-09-14T05:34:22.160Z,75
2022-09-14T05:35:28.332Z,75
2022-09-14T05:36:32.603Z,75
2022-09-14T05:41:02.848Z,75
2022-09-14T05:45:46.312Z,75
2022-09-14T05:50:29.203Z,75
2022-09-14T05:55:12.351Z,74
2022-09-14T05:58:05.933Z,73
2022-09-14T05:59:10.239Z,73
2022-09-14T06:00:14.776Z,73
2022-09-14T06:01:18.995Z,72
2022-09-14T06:02:26.288Z,73
2022-09-14T06:03:30.377Z,73
2022-09-14T06:04:34.632Z,73
2022-09-14T06:05:38.964Z,74
2022-09-14T06:06:52.235Z,73
2022-09-14T06:07:47.685Z,73
2022-09-14T06:08:54.789Z,73
2022-09-14T06:09:59.014Z,73
2022-09-14T06:11:03.365Z,74
2022-09-14T06:12:12.799Z,74
2022-09-14T06:13:17.007Z,73
2022-09-14T06:14:26.119Z,73
2022-09-14T06:15:30.435Z,73
2022-09-14T06:16:34.826Z,73
2022-09-14T06:17:39.109Z,73
2022-09-14T06:18:43.525Z,74
2022-09-14T06:19:47.840Z,73
2022-09-14T06:20:53.388Z,74
2022-09-14T06:21:57.616Z,74
2022-09-14T06:23:01.840Z,73
2022-09-14T06:24:07.216Z,73
2022-09-14T06:25:11.928Z,72
2022-09-14T06:26:16.285Z,72
2022-09-14T06:27:23.812Z,71
2022-09-14T06:28:28.196Z,71
2022-09-14T06:29:32.936Z,72
2022-09-14T06:30:37.250Z,72
2022-09-14T06:31:44.496Z,72
2022-09-14T06:32:48.748Z,72
2022-09-14T06:33:53.029Z,71
2022-09-14T06:34:57.293Z,71
2022-09-14T06:36:01.464Z,72
2022-09-14T06:37:05.837Z,72
2022-09-14T06:38:10.752Z,72
2022-09-14T06:39:15.153Z,72
2022-09-14T06:42:09.467Z,73
2022-09-14T06:43:15.568Z,72
2022-09-14T06:44:22.136Z,71
2022-09-14T06:45:26.444Z,72
2022-09-14T06:46:30.747Z,71
2022-09-14T06:47:35.048Z,71
2022-09-14T06:48:39.340Z,72
2022-09-14T06:49:50.060Z,72
2022-09-14T06:50:54.404Z,72
2022-09-14T06:51:58.740Z,72
2022-09-14T06:53:03.252Z,72
2022-09-14T06:54:07.524Z,73
2022-09-14T06:55:11.876Z,72
2022-09-14T06:56:19.826Z,72
2022-09-14T06:57:24.204Z,72
2022-09-14T06:58:28.400Z,72
2022-09-14T06:59:32.568Z,71
2022-09-14T07:00:36.861Z,71
2022-09-14T07:01:41.377Z,72
2022-09-14T07:02:51.331Z,72
2022-09-14T07:03:52.992Z,71
2022-09-14T07:04:57.408Z,71
2022-09-14T07:06:01.640Z,71
2022-09-14T07:07:05.924Z,71
2022-09-14T07:08:12.339Z,71
2022-09-14T07:09:14.673Z,72
2022-09-14T07:10:19.147Z,73
2022-09-14T07:11:25.593Z,72
2022-09-14T07:12:29.927Z,73
2022-09-14T07:13:34.044Z,73
2022-09-14T07:14:38.458Z,72
2022-09-14T07:15:42.764Z,72
2022-09-14T07:16:49.736Z,72
2022-09-14T07:17:54.252Z,72
2022-09-14T07:18:58.578Z,72
2022-09-14T07:20:02.928Z,71
2022-09-14T07:21:08.652Z,71
2022-09-14T07:22:15.872Z,72
2022-09-14T07:23:21.484Z,71
2022-09-14T07:24:25.804Z,72
2022-09-14T07:25:30.072Z,72
2022-09-14T07:26:35.338Z,72
2022-09-14T07:27:44.880Z,72
2022-09-14T07:28:49.096Z,72
2022-09-14T07:29:58.113Z,72
2022-09-14T07:31:03.489Z,71
2022-09-14T07:32:06.628Z,71
2022-09-14T07:33:10.736Z,72
2022-09-14T07:34:15.172Z,72
2022-09-14T07:35:19.383Z,72
2022-09-14T07:36:24.887Z,72
2022-09-14T07:37:29.480Z,72
2022-09-14T07:38:50.886Z,72
2022-09-14T07:39:38.145Z,72
2022-09-14T07:40:42.428Z,71
2022-09-14T07:41:46.612Z,72
2022-09-14T07:42:53.332Z,71
2022-09-14T07:43:55.144Z,71
2022-09-14T07:44:59.448Z,72
2022-09-14T07:46:04.251Z,71
2022-09-14T07:47:08.317Z,71
2022-09-14T07:48:12.568Z,72
2022-09-14T07:49:16.740Z,72
2022-09-14T07:50:21.326Z,71
2022-09-14T07:51:25.620Z,72
2022-09-14T07:52:29.753Z,71
2022-09-14T07:53:34.096Z,71
2022-09-14T07:54:38.320Z,70
2022-09-14T07:55:42.484Z,70
2022-09-14T07:56:48.356Z,70
2022-09-14T07:57:56.302Z,71
2022-09-14T07:59:07.382Z,71
2022-09-14T08:00:04.924Z,71
2022-09-14T08:01:09.653Z,72
2022-09-14T08:02:14.154Z,70
2022-09-14T08:03:19.850Z,71
2022-09-14T08:04:24.028Z,71
2022-09-14T08:05:28.332Z,70
2022-09-14T08:06:32.616Z,69
2022-09-14T08:07:36.784Z,70
2022-09-14T08:08:41.188Z,70
2022-09-14T08:09:45.724Z,70
2022-09-14T08:10:50.099Z,70
2022-09-14T08:11:54.391Z,70
2022-09-14T08:12:58.568Z,70
2022-09-14T08:15:06.362Z,69
2022-09-14T08:16:10.608Z,70
2022-09-14T08:17:14.960Z,70
2022-09-14T08:18:19.248Z,69
2022-09-14T08:19:26.576Z,69
2022-09-14T08:20:30.918Z,70
2022-09-14T08:21:35.256Z,69
2022-09-14T08:22:39.533Z,69
2022-09-14T08:23:43.584Z,68
2022-09-14T08:24:47.939Z,69
2022-09-14T08:25:56.900Z,69
2022-09-14T08:27:12.245Z,69
2022-09-14T08:28:15.682Z,69
2022-09-14T08:29:19.932Z,70
2022-09-14T08:30:24.280Z,69
2022-09-14T08:31:28.610Z,70
2022-09-14T08:32:32.800Z,70
2022-09-14T08:33:37.021Z,70
2022-09-14T08:34:41.344Z,70
2022-09-14T08:35:58.677Z,70
2022-09-14T08:36:50.359Z,70
2022-09-14T08:37:58.523Z,70
2022-09-14T08:39:04.939Z,70
2022-09-14T08:40:12.197Z,71
2022-09-14T08:41:16.512Z,70
2022-09-14T08:42:30.803Z,70
2022-09-14T08:43:35.048Z,69
2022-09-14T08:44:39.355Z,70
2022-09-14T08:45:43.957Z,70
2022-09-14T08:46:48.039Z,70
2022-09-14T08:47:57.339Z,70
2022-09-14T08:49:01.670Z,70
2022-09-14T08:50:10.455Z,69
2022-09-14T08:51:14.566Z,69
2022-09-14T08:52:22.294Z,69
2022-09-14T08:53:24.015Z,69
2022-09-14T08:54:28.317Z,69
2022-09-14T08:55:32.609Z,69
2022-09-14T08:56:44.416Z,69
2022-09-14T08:57:48.776Z,69
2022-09-14T08:59:03.234Z,69
2022-09-14T09:00:17.631Z,70
2022-09-14T09:01:21.938Z,70
2022-09-14T09:02:33.978Z,70
2022-09-14T09:03:48.785Z,72
2022-09-14T09:04:52.918Z,71
2022-09-14T09:06:02.363Z,72
2022-09-14T09:07:12.739Z,72
2022-09-14T09:08:19.816Z,72
2022-09-14T09:09:36.711Z,72
2022-09-14T09:10:43.818Z,71
2022-09-14T09:11:48.073Z,72
2022-09-14T09:12:52.372Z,72
2022-09-14T09:14:01.032Z,72
2022-09-14T09:15:05.358Z,72
2022-09-14T09:16:20.401Z,72
2022-09-14T09:17:24.687Z,72
2022-09-14T09:18:31.687Z,72
2022-09-14T09:19:43.655Z,72
2022-09-14T09:20:58.204Z,73
2022-09-14T09:22:10.533Z,73
2022-09-14T09:23:16.746Z,73
2022-09-14T09:24:21.097Z,73
2022-09-14T09:25:32.649Z,73
2022-09-14T09:26:39.950Z,74
2022-09-14T09:27:44.238Z,74
2022-09-14T09:28:48.473Z,74
2022-09-14T09:29:54.858Z,74
2022-09-14T09:30:59.491Z,74
2022-09-14T09:32:07.117Z,73
2022-09-14T09:33:16.419Z,74
2022-09-14T09:34:20.700Z,74
2022-09-14T09:35:28.857Z,74
2022-09-14T09:36:33.765Z,74
2022-09-14T09:37:38.510Z,74
2022-09-14T09:38:42.915Z,73
2022-09-14T09:39:47.590Z,74
2022-09-14T09:40:52.311Z,74
2022-09-14T09:42:02.606Z,74
2022-09-14T09:43:12.827Z,74
2022-09-14T09:44:17.452Z,75
2022-09-14T09:45:22.022Z,74
2022-09-14T09:46:26.369Z,75
2022-09-14T09:47:30.581Z,75
2022-09-14T09:48:42.022Z,76
2022-09-14T09:49:46.481Z,76
2022-09-14T09:50:50.889Z,76
2022-09-14T09:52:00.409Z,76
2022-09-14T09:53:12.558Z,76
2022-09-14T09:54:17.258Z,76
2022-09-14T09:55:31.227Z,76
2022-09-14T09:56:38.301Z,76
2022-09-14T09:57:51.123Z,77
2022-09-14T09:58:55.931Z,77
2022-09-14T10:00:00.228Z,77
2022-09-14T10:01:12.351Z,78
2022-09-14T10:02:27.681Z,78
2022-09-14T10:03:32.033Z,78
2022-09-14T10:04:36.828Z,78
2022-09-14T10:05:41.517Z,78
2022-09-14T10:06:46.708Z,78
2022-09-14T10:07:51.776Z,79
2022-09-14T10:09:00.025Z,80
2022-09-14T10:10:04.472Z,81
2022-09-14T10:11:11.434Z,81
2022-09-14T10:12:26.219Z,82
2022-09-14T10:13:30.589Z,80
2022-09-14T10:14:36.220Z,81
2022-09-14T10:15:40.953Z,82
2022-09-14T10:16:45.357Z,81
2022-09-14T10:17:49.729Z,81
2022-09-14T10:19:01.701Z,81
2022-09-14T10:20:06.000Z,83
2022-09-14T10:21:10.212Z,82
2022-09-14T10:22:17.299Z,83
2022-09-14T10:23:19.319Z,84
2022-09-14T10:24:23.709Z,84
2022-09-14T10:25:28.033Z,85
2022-09-14T10:26:32.278Z,84
2022-09-14T10:27:38.154Z,85
2022-09-14T10:28:45.953Z,84
2022-09-14T10:29:50.133Z,84
2022-09-14T10:30:54.624Z,84
2022-09-14T10:32:01.787Z,85
2022-09-14T10:33:06.014Z,85
2022-09-14T10:34:12.340Z,85
2022-09-14T10:35:14.688Z,85
2022-09-14T10:36:19.030Z,86
2022-09-14T10:37:33.555Z,84
2022-09-14T10:38:41.274Z,86
2022-09-14T10:39:50.471Z,86
2022-09-14T10:40:59.773Z,85
2022-09-14T10:42:12.249Z,85
2022-09-14T10:43:21.777Z,86
2022-09-14T10:44:31.190Z,84
2022-09-14T10:45:38.248Z,84
2022-09-14T10:46:42.723Z,85
2022-09-14T10:47:46.892Z,86
2022-09-14T10:49:01.367Z,85
2022-09-14T10:50:15.845Z,85
2022-09-14T10:51:28.126Z,85
2022-09-14T10:52:37.700Z,86
2022-09-14T10:53:50.043Z,85
2022-09-14T10:54:59.500Z,86
2022-09-14T10:56:13.953Z,85
2022-09-14T10:57:28.324Z,85
2022-09-14T10:58:38.451Z,85
2022-09-14T10:59:46.164Z,86
2022-09-14T11:00:54.474Z,86
2022-09-14T11:02:06.940Z,87
2022-09-14T11:03:16.304Z,86
2022-09-14T11:04:27.266Z,86
2022-09-14T11:05:31.528Z,86
2022-09-14T11:06:40.862Z,85
2022-09-14T11:07:53.299Z,86
2022-09-14T11:09:02.702Z,85
2022-09-14T11:10:07.006Z,85
2022-09-14T11:11:22.082Z,85
2022-09-14T11:12:34.390Z,86
2022-09-14T11:13:42.987Z,86
2022-09-14T11:14:57.362Z,86
2022-09-14T11:16:04.105Z,87
2022-09-14T11:17:16.882Z,86
2022-09-14T11:18:26.324Z,86
2022-09-14T11:19:34.027Z,86
2022-09-14T11:20:53.199Z,84
2022-09-14T11:22:08.148Z,85
2022-09-14T11:23:15.005Z,84
2022-09-14T11:24:24.410Z,84
2022-09-14T11:25:39.085Z,85
2022-09-14T11:26:43.816Z,86
2022-09-14T11:27:50.740Z,85
2022-09-14T11:28:57.718Z,85
2022-09-14T11:30:12.486Z,85
2022-09-14T11:31:19.793Z,85
2022-09-14T11:34:13.239Z,85
2022-09-14T11:35:19.207Z,86
2022-09-14T11:36:28.763Z,86
2022-09-14T11:37:38.216Z,85
2022-09-14T11:38:47.375Z,85
2022-09-14T11:39:54.504Z,86
2022-09-14T11:41:03.846Z,87
2022-09-14T11:42:18.346Z,87
2022-09-14T11:43:29.088Z,86
2022-09-14T11:44:41.488Z,85
2022-09-14T11:45:48.854Z,86
2022-09-14T11:47:00.852Z,85
2022-09-14T11:48:25.655Z,85
2022-09-14T11:49:12.867Z,85
2022-09-14T11:50:20.446Z,86
2022-09-14T11:51:25.477Z,86
2022-09-14T11:52:37.840Z,87
2022-09-14T11:53:42.052Z,87
2022-09-14T11:54:50.302Z,86
2022-09-14T11:55:54.483Z,86
2022-09-14T11:56:59.225Z,85
2022-09-14T11:58:05.248Z,86
2022-09-14T11:59:09.514Z,85
2022-09-14T12:00:13.769Z,86
2022-09-14T12:01:20.810Z,86
2022-09-14T12:02:28.214Z,85
2022-09-14T12:03:32.625Z,86
2022-09-14T12:04:44.922Z,85
2022-09-14T12:05:59.398Z,85
2022-09-14T12:07:03.594Z,85
2022-09-14T12:08:11.411Z,86
2022-09-14T12:09:25.843Z,85
2022-09-14T12:10:30.066Z,85
2022-09-14T12:11:34.667Z,85
2022-09-14T12:12:39.378Z,86
2022-09-14T12:13:46.478Z,85
2022-09-14T12:14:50.894Z,85
2022-09-14T12:15:55.630Z,86
2022-09-14T12:17:13.006Z,85
2022-09-14T12:18:17.123Z,84
2022-09-14T12:19:22.454Z,86
2022-09-14T12:20:27.686Z,86
2022-09-14T12:21:39.490Z,86
2022-09-14T12:22:48.125Z,86
2022-09-14T12:23:49.874Z,86
2022-09-14T12:24:55.050Z,86
2022-09-14T12:25:59.790Z,87
2022-09-14T12:27:08.671Z,85
2022-09-14T12:28:17.027Z,86
2022-09-14T12:29:26.743Z,86
2022-09-14T12:30:38.383Z,86
2022-09-14T12:31:42.073Z,86
2022-09-14T12:32:46.374Z,85
2022-09-14T12:33:50.858Z,85
2022-09-14T12:35:05.331Z,87
2022-09-14T12:36:14.607Z,85
2022-09-14T12:37:21.514Z,85
2022-09-14T12:38:33.286Z,87
2022-09-14T12:39:37.961Z,87
2022-09-14T12:40:42.041Z,85
2022-09-14T12:41:46.334Z,87
2022-09-14T12:42:50.562Z,86
2022-09-14T12:43:54.714Z,86
2022-09-14T12:47:49.522Z,86
2022-09-14T12:48:55.042Z,88
2022-09-14T12:50:07.502Z,87
2022-09-14T12:51:17.167Z,86
2022-09-14T12:52:29.590Z,86
2022-09-14T12:53:44.130Z,86
2022-09-14T12:54:51.292Z,86
2022-09-14T12:55:58.760Z,86
2022-09-14T12:57:04.202Z,86
2022-09-14T12:58:18.854Z,86
2022-09-14T12:59:28.182Z,86
2022-09-14T13:00:45.290Z,86
2022-09-14T13:01:50.389Z,86
2022-09-14T13:02:59.743Z,87
2022-09-14T13:04:09.422Z,85
2022-09-14T13:05:13.727Z,86
2022-09-14T13:06:18.086Z,86
2022-09-14T13:07:22.350Z,86
2022-09-14T13:08:26.658Z,85
2022-09-14T13:09:31.082Z,86
2022-09-14T13:10:35.690Z,87
2022-09-14T13:11:45.157Z,85
2022-09-14T13:12:54.999Z,86
2022-09-14T13:13:59.343Z,86
2022-09-14T13:15:03.771Z,86
2022-09-14T13:16:18.235Z,85
2022-09-14T13:17:22.615Z,86
2022-09-14T13:18:26.883Z,86
2022-09-14T13:19:34.570Z,85
2022-09-14T13:20:41.558Z,86
2022-09-14T13:21:51.474Z,86
2022-09-14T13:22:56.123Z,85
2022-09-14T13:24:00.493Z,86
2022-09-14T13:25:05.221Z,85
2022-09-14T13:26:09.618Z,86
2022-09-14T13:27:18.981Z,87
2022-09-14T13:28:29.047Z,86
2022-09-14T13:29:33.461Z,85
2022-09-14T13:30:37.971Z,86
2022-09-14T13:31:45.180Z,85
2022-09-14T13:32:49.446Z,87
2022-09-14T13:33:55.116Z,86
2022-09-14T13:34:59.769Z,86
2022-09-14T13:36:04.136Z,86
2022-09-14T13:37:08.541Z,85
2022-09-14T13:38:13.581Z,86
2022-09-14T13:39:17.847Z,86
2022-09-14T13:40:30.193Z,86
2022-09-14T13:41:34.578Z,85
2022-09-14T13:42:39.626Z,86
2022-09-14T13:43:44.476Z,86
2022-09-14T13:44:48.752Z,86
2022-09-14T13:45:53.342Z,86
2022-09-14T13:46:57.609Z,86
2022-09-14T13:48:02.368Z,87
2022-09-14T13:49:06.697Z,88
2022-09-14T13:50:11.459Z,87
2022-09-14T13:51:16.015Z,87
2022-09-14T13:52:38.833Z,86
2022-09-14T13:53:31.875Z,86
2022-09-14T13:54:36.283Z,87
2022-09-14T13:55:42.018Z,87
2022-09-14T13:56:46.885Z,87
2022-09-14T13:58:02.045Z,87
2022-09-14T13:59:11.421Z,87
2022-09-14T14:00:15.625Z,85
2022-09-14T14:01:20.262Z,87
2022-09-14T14:02:24.639Z,87
2022-09-14T14:03:29.082Z,87
2022-09-14T14:04:38.955Z,86
2022-09-14T14:05:43.733Z,86
2022-09-14T14:06:48.780Z,86
2022-09-14T14:08:05.343Z,87
2022-09-14T14:09:14.692Z,87
2022-09-14T14:10:20.601Z,86
2022-09-14T14:11:28.607Z,86
2022-09-14T14:12:38.958Z,86
2022-09-14T14:13:43.278Z,86
2022-09-14T14:14:51.180Z,85
2022-09-14T14:16:00.639Z,87
2022-09-14T14:17:13.523Z,86
2022-09-14T14:18:26.678Z,86
2022-09-14T14:19:41.095Z,87
2022-09-14T14:20:45.972Z,87
2022-09-14T14:21:50.506Z,87
2022-09-14T14:22:54.607Z,87
2022-09-14T14:24:12.902Z,87
2022-09-14T14:25:19.130Z,87
2022-09-14T14:26:29.431Z,87
2022-09-14T14:27:34.143Z,86
2022-09-14T14:28:41.457Z,86
2022-09-14T14:29:45.878Z,87
2022-09-14T14:30:50.764Z,86
2022-09-14T14:31:55.273Z,85
2022-09-14T14:32:59.686Z,85
2022-09-14T14:34:04.154Z,86
2022-09-14T14:35:11.740Z,87
2022-09-14T14:36:21.147Z,86
2022-09-14T14:37:26.507Z,86
2022-09-14T14:38:30.820Z,85
2022-09-14T14:39:35.384Z,87
2022-09-14T14:40:39.762Z,86
2022-09-14T14:41:45.449Z,86
2022-09-14T14:42:50.028Z,85
2022-09-14T14:43:57.955Z,86
2022-09-14T14:45:02.340Z,85
2022-09-14T14:46:06.856Z,86
2022-09-14T14:47:11.080Z,86
2022-09-14T14:48:15.587Z,86
2022-09-14T14:49:20.300Z,86
2022-09-14T14:50:24.919Z,85
2022-09-14T14:51:29.334Z,86
2022-09-14T14:52:33.835Z,87
2022-09-14T14:53:42.490Z,86
2022-09-14T14:54:46.834Z,85
2022-09-14T14:55:51.704Z,85
2022-09-14T14:56:56.160Z,86
2022-09-14T14:58:03.471Z,86
2022-09-14T14:59:08.093Z,85
2022-09-14T15:00:15.247Z,84
2022-09-14T15:02:26.180Z,86
2022-09-14T15:03:30.518Z,86
2022-09-14T15:04:35.340Z,86
2022-09-14T15:05:40.213Z,85
2022-09-14T15:06:44.524Z,87
2022-09-14T15:07:48.790Z,87
2022-09-14T15:08:56.814Z,86
2022-09-14T15:10:01.219Z,86
2022-09-14T15:11:07.903Z,86
2022-09-14T15:12:17.332Z,86
2022-09-14T15:13:21.640Z,87
2022-09-14T15:14:27.062Z,87
2022-09-14T15:15:30.520Z,86
2022-09-14T15:16:35.328Z,86
2022-09-14T15:17:39.648Z,86
2022-09-14T15:18:44.108Z,86
2022-09-14T15:19:50.696Z,86
2022-09-14T15:20:54.948Z,87
2022-09-14T15:22:01.484Z,86
2022-09-14T15:23:03.644Z,87
2022-09-14T15:24:08.547Z,86
2022-09-14T15:25:12.911Z,86
2022-09-14T15:26:17.400Z,86
2022-09-14T15:27:21.832Z,87
2022-09-14T15:29:29.679Z,86
2022-09-14T15:30:33.991Z,86
2022-09-14T15:31:38.272Z,87
2022-09-14T15:32:44.552Z,87
2022-09-14T15:33:48.908Z,87
2022-09-14T15:34:53.232Z,86
2022-09-14T15:35:57.612Z,88
2022-09-14T15:37:02.083Z,87
2022-09-14T15:38:06.335Z,88
2022-09-14T15:39:14.471Z,87
2022-09-14T15:40:19.281Z,87
2022-09-14T15:41:23.832Z,86
2022-09-14T15:42:28.243Z,86
2022-09-14T15:43:32.661Z,87
2022-09-14T15:44:36.959Z,86
2022-09-14T15:45:41.515Z,86
2022-09-14T15:46:45.528Z,85
2022-09-14T15:47:49.891Z,86
2022-09-14T15:48:54.272Z,85
2022-09-14T15:49:58.610Z,85
2022-09-14T15:51:03.368Z,85
2022-09-14T15:52:07.883Z,85
2022-09-14T15:53:12.469Z,84
2022-09-14T15:54:16.800Z,85
2022-09-14T15:55:20.931Z,86
2022-09-14T15:56:25.479Z,85
2022-09-14T15:57:29.811Z,86
2022-09-14T15:58:35.091Z,86
2022-09-14T15:59:39.344Z,85
2022-09-14T16:00:47.641Z,85
2022-09-14T16:01:52.154Z,85
2022-09-14T16:02:56.809Z,84
2022-09-14T16:04:01.395Z,87
2022-09-14T16:05:06.319Z,86
2022-09-14T16:06:11.082Z,85
2022-09-14T16:07:15.611Z,86
2022-09-14T16:08:20.175Z,85
2022-09-14T16:09:24.741Z,85
2022-09-14T16:10:29.096Z,84
2022-09-14T16:11:33.585Z,84
2022-09-14T16:12:37.984Z,84
2022-09-14T16:13:42.440Z,85
2022-09-14T16:14:46.771Z,85
2022-09-14T16:15:53.570Z,84
2022-09-14T16:17:05.611Z,85
2022-09-14T16:18:10.028Z,85
2022-09-14T16:19:14.291Z,85
2022-09-14T16:20:18.583Z,85
2022-09-14T16:21:23.199Z,85
2022-09-14T16:22:27.691Z,84
2022-09-14T16:23:32.375Z,84
2022-09-14T16:24:36.727Z,84
2022-09-14T16:25:41.196Z,85
2022-09-14T16:26:45.504Z,85
2022-09-14T16:27:49.639Z,84
2022-09-14T16:28:54.019Z,84
2022-09-14T16:29:58.303Z,85
2022-09-14T16:31:02.900Z,85
2022-09-14T16:32:07.490Z,86
2022-09-14T16:33:12.044Z,86
2022-09-14T16:34:16.817Z,86
2022-09-14T16:35:21.340Z,85
2022-09-14T16:36:25.695Z,86
2022-09-14T16:37:32.112Z,86
2022-09-14T16:38:36.483Z,87
2022-09-14T16:39:40.709Z,87
2022-09-14T16:40:45.039Z,86
2022-09-14T16:41:49.535Z,85
2022-09-14T16:42:53.991Z,84
2022-09-14T16:43:58.347Z,84
2022-09-14T16:45:03.528Z,85
2022-09-14T16:46:08.475Z,85
2022-09-14T16:47:12.719Z,85
2022-09-14T16:48:16.836Z,85